Time;durP1;ratioP1;P1;durP2;ratioP2;P2;SDS_P1;SDS_P2;PMS_P1;PMS_P2;Temp;Humidity;BMP_temperature;BMP_pressure;BME280_temperature;BME280_humidity;BME280_pressure;Samples;Min_cycle;Max_cycle;Signal;HPM_P1;HPM_P2
2023/03/04 00:00:23;;;;;;;32.08;2.75;;;5.80;99.90;;;;;;5041870;28;20014;-73
2023/03/04 00:02:49;;;;;;;21.83;3.50;;;5.80;99.90;;;;;;5040812;28;20482;-73
2023/03/04 00:05:15;;;;;;;16.42;3.22;;;5.80;99.90;;;;;;5040793;28;20029;-73
2023/03/04 00:07:40;;;;;;;23.67;3.72;;;5.80;99.90;;;;;;5041702;28;20025;-71
2023/03/04 00:10:07;;;;;;;24.10;3.20;;;5.80;99.90;;;;;;5039698;28;20140;-75
2023/03/04 00:12:32;;;;;;;31.55;4.10;;;5.80;99.90;;;;;;5040155;28;20033;-70
2023/03/04 00:14:58;;;;;;;30.27;3.30;;;5.80;99.90;;;;;;5040860;28;20026;-74
2023/03/04 00:17:24;;;;;;;29.08;3.50;;;5.80;99.90;;;;;;5041684;28;20022;-74
2023/03/04 00:19:49;;;;;;;29.05;3.78;;;5.80;99.90;;;;;;5041200;28;20037;-72
2023/03/04 00:22:15;;;;;;;35.80;3.35;;;5.80;99.90;;;;;;5041561;28;20038;-73
2023/03/04 00:24:40;;;;;;;34.67;3.72;;;5.80;99.90;;;;;;5041446;28;20055;-73
2023/03/04 00:27:06;;;;;;;27.65;3.40;;;5.80;99.90;;;;;;5041277;28;20152;-74
2023/03/04 00:29:31;;;;;;;28.27;3.42;;;5.80;99.90;;;;;;5040031;28;20021;-71
2023/03/04 00:31:57;;;;;;;24.80;3.25;;;5.80;99.90;;;;;;5041293;28;20033;-71
2023/03/04 00:34:24;;;;;;;27.60;3.25;;;5.90;99.90;;;;;;5040630;28;20061;-71
2023/03/04 00:36:49;;;;;;;31.58;3.72;;;5.80;99.90;;;;;;5039893;28;20046;-73
2023/03/04 00:39:15;;;;;;;25.10;3.78;;;5.80;99.90;;;;;;5041084;28;20038;-72
2023/03/04 00:41:41;;;;;;;28.45;3.15;;;5.80;99.90;;;;;;5041115;28;20030;-72
2023/03/04 00:44:06;;;;;;;22.27;3.05;;;5.90;99.90;;;;;;5041157;28;20048;-74
2023/03/04 00:46:32;;;;;;;26.20;3.55;;;5.90;99.90;;;;;;5039926;28;20025;-72
2023/03/04 00:48:58;;;;;;;22.05;2.88;;;5.90;99.90;;;;;;5040993;28;20026;-75
2023/03/04 00:51:23;;;;;;;19.55;2.85;;;5.90;99.90;;;;;;5039478;28;20068;-71
2023/03/04 00:53:51;;;;;;;19.52;2.90;;;5.90;99.90;;;;;;5040150;28;20022;-73
2023/03/04 00:56:17;;;;;;;17.08;2.20;;;5.90;99.90;;;;;;5039300;28;20022;-73
2023/03/04 00:58:42;;;;;;;26.13;3.15;;;5.90;99.90;;;;;;5040604;28;20033;-74
2023/03/04 01:01:08;;;;;;;30.15;3.85;;;5.90;99.90;;;;;;5041008;28;20044;-74
2023/03/04 01:03:33;;;;;;;25.63;2.92;;;5.90;99.90;;;;;;5039240;28;20033;-72
2023/03/04 01:05:59;;;;;;;20.67;3.05;;;5.90;99.90;;;;;;5039679;28;20133;-74
2023/03/04 01:08:25;;;;;;;18.65;2.78;;;5.90;99.90;;;;;;5040855;28;20552;-72
2023/03/04 01:10:51;;;;;;;20.92;3.22;;;5.90;99.90;;;;;;5040177;28;20022;-73
2023/03/04 01:13:17;;;;;;;19.35;3.45;;;5.90;99.90;;;;;;5040277;28;20052;-71
2023/03/04 01:15:43;;;;;;;22.00;3.38;;;5.80;99.90;;;;;;5041068;28;20034;-73
2023/03/04 01:18:09;;;;;;;32.33;3.30;;;5.80;99.90;;;;;;5040616;28;20025;-74
2023/03/04 01:20:34;;;;;;;23.95;2.65;;;5.90;99.90;;;;;;5039262;28;20033;-73
2023/03/04 01:23:00;;;;;;;18.80;2.30;;;5.90;99.90;;;;;;5040449;28;20047;-70
2023/03/04 01:25:25;;;;;;;20.38;2.60;;;5.90;99.90;;;;;;5039725;28;20029;-73
2023/03/04 01:27:51;;;;;;;15.05;2.45;;;5.80;99.90;;;;;;5039425;28;20033;-72
2023/03/04 01:30:17;;;;;;;23.42;2.72;;;5.90;99.90;;;;;;5039092;28;20218;-72
2023/03/04 01:32:43;;;;;;;11.20;2.55;;;5.90;99.90;;;;;;5039161;28;20033;-76
2023/03/04 01:35:08;;;;;;;17.45;2.13;;;5.90;99.90;;;;;;5040664;28;20083;-71
2023/03/04 01:37:34;;;;;;;15.43;2.00;;;5.90;99.90;;;;;;5039830;28;20085;-73
2023/03/04 01:39:59;;;;;;;11.27;1.90;;;5.80;99.90;;;;;;5038797;28;20051;-73
2023/03/04 01:42:29;;;;;;;13.30;2.13;;;5.80;99.90;;;;;;5040281;28;20048;-74
2023/03/04 01:44:55;;;;;;;17.33;2.25;;;5.90;99.90;;;;;;5040197;28;20029;-75
2023/03/04 01:47:22;;;;;;;11.98;1.63;;;5.90;99.90;;;;;;5038746;28;20059;-71
2023/03/04 01:49:54;;;;;;;20.05;2.38;;;5.90;99.90;;;;;;5040069;28;20041;-73
2023/03/04 01:52:20;;;;;;;18.35;2.47;;;5.90;99.90;;;;;;5039879;28;20810;-71
2023/03/04 01:54:47;;;;;;;16.25;2.05;;;5.90;99.90;;;;;;5039069;28;20078;-71
2023/03/04 01:57:18;;;;;;;16.92;1.92;;;5.90;99.90;;;;;;5038335;28;20033;-75
2023/03/04 01:59:44;;;;;;;13.57;2.03;;;5.90;99.90;;;;;;5038778;28;20116;-73
2023/03/04 02:02:11;;;;;;;21.65;2.47;;;5.80;99.90;;;;;;5037300;28;20022;-72
2023/03/04 02:04:38;;;;;;;19.80;2.55;;;5.80;99.90;;;;;;5040345;28;20068;-75
2023/03/04 02:07:04;;;;;;;20.95;2.10;;;5.80;99.90;;;;;;5039039;28;20028;-74
2023/03/04 02:09:31;;;;;;;18.40;1.80;;;5.80;99.90;;;;;;5039734;28;20014;-75
2023/03/04 02:11:58;;;;;;;15.98;2.15;;;5.90;99.90;;;;;;5040115;28;20045;-73
2023/03/04 02:14:24;;;;;;;12.82;2.55;;;5.80;99.90;;;;;;5039651;28;20104;-73
2023/03/04 02:16:50;;;;;;;13.60;1.60;;;5.90;99.90;;;;;;5039899;28;20049;-71
2023/03/04 02:19:27;;;;;;;12.60;1.60;;;5.90;99.90;;;;;;5039934;28;20093;-70
2023/03/04 02:21:53;;;;;;;13.02;1.50;;;5.90;99.90;;;;;;5039378;28;20026;-74
2023/03/04 02:24:28;;;;;;;10.63;1.50;;;5.90;99.90;;;;;;5039710;28;20032;-73
2023/03/04 02:26:54;;;;;;;14.70;1.77;;;5.80;99.90;;;;;;5038093;28;20087;-71
2023/03/04 02:29:19;;;;;;;9.60;2.00;;;5.90;99.90;;;;;;5039326;28;20116;-75
2023/03/04 02:31:51;;;;;;;11.95;1.73;;;5.90;99.90;;;;;;5039840;28;20045;-75
2023/03/04 02:34:16;;;;;;;14.73;1.60;;;5.90;99.90;;;;;;5037901;28;20558;-75
2023/03/04 02:36:43;;;;;;;14.50;1.63;;;6.00;99.90;;;;;;5037781;28;20064;-72
2023/03/04 02:39:24;;;;;;;11.73;1.60;;;5.80;99.90;;;;;;5040892;28;20064;-72
2023/03/04 02:41:52;;;;;;;14.82;1.90;;;5.90;99.90;;;;;;5041712;28;20038;-73
2023/03/04 02:44:39;;;;;;;23.38;2.40;;;5.90;99.90;;;;;;5043266;28;20030;-76
2023/03/04 02:47:07;;;;;;;25.00;2.00;;;5.90;99.90;;;;;;5041873;28;20025;-74
2023/03/04 02:49:35;;;;;;;16.92;2.05;;;5.90;99.90;;;;;;5041469;28;20025;-73
2023/03/04 02:52:11;;;;;;;17.23;2.35;;;5.90;99.90;;;;;;5040690;28;20026;-73
2023/03/04 02:54:38;;;;;;;18.77;2.40;;;5.90;99.90;;;;;;5041871;28;20087;-72
2023/03/04 02:57:06;;;;;;;12.35;2.33;;;5.90;99.90;;;;;;5043126;28;20048;-74
2023/03/04 02:59:31;;;;;;;21.50;2.40;;;5.80;99.90;;;;;;5042525;28;20107;-73
2023/03/04 03:01:57;;;;;;;16.17;2.67;;;5.80;99.90;;;;;;5042400;28;20506;-72
2023/03/04 03:04:24;;;;;;;16.67;2.00;;;5.80;99.90;;;;;;5041531;28;20055;-73
2023/03/04 03:06:50;;;;;;;20.20;2.33;;;5.80;99.90;;;;;;5041354;28;20053;-74
2023/03/04 03:09:15;;;;;;;12.45;1.98;;;5.80;99.90;;;;;;5041074;28;20491;-74
2023/03/04 03:11:41;;;;;;;17.17;2.28;;;5.80;99.90;;;;;;5040611;28;20060;-72
2023/03/04 03:14:07;;;;;;;16.35;2.35;;;5.80;99.90;;;;;;5042609;28;20029;-73
2023/03/04 03:16:33;;;;;;;18.85;2.38;;;5.90;99.90;;;;;;5041386;28;20033;-76
2023/03/04 03:18:59;;;;;;;22.00;2.30;;;5.80;99.90;;;;;;5041165;28;20104;-71
2023/03/04 03:21:25;;;;;;;18.17;2.15;;;5.90;99.90;;;;;;5042729;28;20053;-73
2023/03/04 03:23:50;;;;;;;18.08;2.10;;;5.80;99.90;;;;;;5041926;28;21135;-71
2023/03/04 03:26:16;;;;;;;13.77;2.30;;;5.90;99.90;;;;;;5042007;28;20694;-72
2023/03/04 03:28:42;;;;;;;17.92;1.77;;;5.80;99.90;;;;;;5042297;28;20036;-72
2023/03/04 03:31:07;;;;;;;12.73;1.70;;;5.80;99.90;;;;;;5042564;28;20029;-74
2023/03/04 03:33:33;;;;;;;19.20;2.30;;;5.80;99.90;;;;;;5041101;28;20037;-72
2023/03/04 03:35:59;;;;;;;16.58;2.28;;;5.80;99.90;;;;;;5042813;28;20489;-74
2023/03/04 03:38:25;;;;;;;16.25;1.63;;;5.70;99.90;;;;;;5043097;28;20033;-72
2023/03/04 03:40:50;;;;;;;19.20;2.20;;;5.80;99.90;;;;;;5042888;28;20508;-72
2023/03/04 03:43:16;;;;;;;9.80;1.77;;;5.90;99.90;;;;;;5042848;28;20022;-74
2023/03/04 03:45:41;;;;;;;16.27;2.15;;;5.70;99.90;;;;;;5043393;28;20095;-73
2023/03/04 03:48:07;;;;;;;9.68;1.98;;;5.70;99.90;;;;;;5041893;28;20022;-76
2023/03/04 03:50:32;;;;;;;12.40;1.73;;;5.70;99.90;;;;;;5041588;28;20025;-71
2023/03/04 03:52:58;;;;;;;18.65;1.88;;;5.70;99.90;;;;;;5042749;28;20036;-74
2023/03/04 03:55:24;;;;;;;12.55;1.92;;;5.60;99.90;;;;;;5042934;28;20056;-72
2023/03/04 03:57:49;;;;;;;14.48;1.67;;;5.60;99.90;;;;;;5041479;28;20037;-74
2023/03/04 04:00:15;;;;;;;20.67;2.25;;;5.60;99.90;;;;;;5042080;28;20183;-76
2023/03/04 04:02:41;;;;;;;16.40;2.03;;;5.60;99.90;;;;;;5041433;28;20025;-71
2023/03/04 04:05:09;;;;;;;22.95;1.88;;;5.60;99.90;;;;;;5042932;28;20120;-74
2023/03/04 04:07:35;;;;;;;12.98;2.03;;;5.50;99.90;;;;;;5041179;28;20024;-73
2023/03/04 04:10:02;;;;;;;16.65;2.38;;;5.60;99.90;;;;;;5042563;28;20033;-76
2023/03/04 04:12:27;;;;;;;13.85;1.83;;;5.40;99.90;;;;;;5042790;28;20029;-73
2023/03/04 04:14:53;;;;;;;18.17;1.73;;;5.50;99.90;;;;;;5042809;28;20014;-75
2023/03/04 04:17:18;;;;;;;17.73;2.15;;;5.50;99.90;;;;;;5042875;28;20064;-74
2023/03/04 04:19:44;;;;;;;16.85;1.90;;;5.40;99.90;;;;;;5042679;28;20034;-76
2023/03/04 04:22:15;;;;;;;17.25;2.22;;;5.50;99.90;;;;;;5042661;28;20528;-75
2023/03/04 04:24:41;;;;;;;19.00;2.20;;;5.40;99.90;;;;;;5042713;28;20044;-75
2023/03/04 04:27:06;;;;;;;19.20;2.35;;;5.40;99.90;;;;;;5042657;28;20038;-75
2023/03/04 04:29:32;;;;;;;17.20;2.15;;;5.30;99.90;;;;;;5042666;28;20088;-74
2023/03/04 04:31:58;;;;;;;14.20;2.03;;;5.40;99.90;;;;;;5041166;28;20021;-76
2023/03/04 04:34:24;;;;;;;20.38;2.70;;;5.20;99.90;;;;;;5041062;28;20102;-74
2023/03/04 04:36:49;;;;;;;10.20;1.95;;;5.20;99.90;;;;;;5042553;28;20029;-75
2023/03/04 04:39:15;;;;;;;15.68;2.40;;;5.30;99.90;;;;;;5040959;28;20038;-74
2023/03/04 04:41:42;;;;;;;14.77;1.73;;;5.20;99.90;;;;;;5042207;28;20990;-76
2023/03/04 04:44:08;;;;;;;15.15;2.30;;;5.20;99.90;;;;;;5042196;28;20052;-76
2023/03/04 04:46:35;;;;;;;7.65;1.75;;;5.20;99.90;;;;;;5042279;28;20449;-72
2023/03/04 04:49:00;;;;;;;13.55;2.42;;;5.20;99.90;;;;;;5040743;28;20108;-72
2023/03/04 04:51:27;;;;;;;16.88;2.53;;;5.30;99.90;;;;;;5040850;28;20037;-74
2023/03/04 04:53:52;;;;;;;19.95;2.63;;;5.30;99.90;;;;;;5041992;28;20029;-74
2023/03/04 04:56:21;;;;;;;21.95;2.40;;;5.20;99.90;;;;;;5041981;28;20041;-73
2023/03/04 04:58:47;;;;;;;12.77;2.03;;;5.30;99.90;;;;;;5041927;28;20045;-73
2023/03/04 05:01:14;;;;;;;19.55;2.50;;;5.20;99.90;;;;;;5040904;28;20025;-75
2023/03/04 05:03:39;;;;;;;12.35;2.85;;;5.20;99.90;;;;;;5042204;28;20032;-75
2023/03/04 05:06:08;;;;;;;14.75;2.63;;;5.30;99.90;;;;;;5042030;28;20027;-74
2023/03/04 05:08:34;;;;;;;9.07;2.40;;;5.30;99.90;;;;;;5041982;28;20044;-76
2023/03/04 05:11:00;;;;;;;21.45;2.85;;;5.30;99.90;;;;;;5040381;28;20033;-75
2023/03/04 05:13:26;;;;;;;26.15;3.50;;;5.20;99.90;;;;;;5040410;28;20025;-73
2023/03/04 05:15:53;;;;;;;14.02;2.58;;;5.20;99.90;;;;;;5039966;28;20444;-72
2023/03/04 05:18:21;;;;;;;21.67;3.35;;;5.20;99.90;;;;;;5040323;28;20044;-74
2023/03/04 05:20:51;;;;;;;15.55;2.95;;;5.20;99.90;;;;;;5041501;28;20026;-74
2023/03/04 05:23:16;;;;;;;17.27;2.72;;;5.20;99.90;;;;;;5039734;28;20057;-73
2023/03/04 05:25:42;;;;;;;14.95;2.58;;;5.20;99.90;;;;;;5041877;28;20040;-73
2023/03/04 05:28:11;;;;;;;12.82;2.78;;;5.40;99.90;;;;;;5040295;28;20421;-74
2023/03/04 05:30:38;;;;;;;13.80;2.38;;;5.20;99.90;;;;;;5041384;28;20056;-73
2023/03/04 05:33:03;;;;;;;11.18;2.38;;;5.30;99.90;;;;;;5041702;28;20021;-73
2023/03/04 05:35:29;;;;;;;14.15;2.75;;;5.30;99.90;;;;;;5040033;28;20462;-73
2023/03/04 05:37:55;;;;;;;13.35;2.92;;;5.30;99.90;;;;;;5041600;28;20089;-72
2023/03/04 05:40:20;;;;;;;13.48;3.03;;;5.30;99.90;;;;;;5040084;28;20065;-75
2023/03/04 05:42:46;;;;;;;14.95;2.67;;;5.30;99.90;;;;;;5041303;28;20048;-72
2023/03/04 05:45:11;;;;;;;16.00;2.92;;;5.30;99.90;;;;;;5040350;28;20029;-72
2023/03/04 05:47:37;;;;;;;14.75;3.00;;;5.30;99.90;;;;;;5041533;28;20034;-73
2023/03/04 05:50:02;;;;;;;18.85;2.90;;;5.20;99.90;;;;;;5040216;28;20025;-74
2023/03/04 05:52:28;;;;;;;20.25;3.20;;;5.30;99.90;;;;;;5041114;28;20300;-72
2023/03/04 05:54:53;;;;;;;8.52;2.15;;;5.30;99.90;;;;;;5041470;28;20030;-74
2023/03/04 05:57:19;;;;;;;13.57;2.88;;;5.30;99.90;;;;;;5039942;28;20167;-73
2023/03/04 05:59:44;;;;;;;20.77;3.70;;;5.30;99.90;;;;;;5040917;28;20045;-73
2023/03/04 06:02:10;;;;;;;11.63;1.98;;;5.30;99.90;;;;;;5041285;28;20021;-70
2023/03/04 06:04:36;;;;;;;8.38;2.25;;;5.30;99.90;;;;;;5040060;28;20022;-71
2023/03/04 06:07:01;;;;;;;18.02;2.60;;;5.30;99.90;;;;;;5039726;28;20116;-73
2023/03/04 06:09:27;;;;;;;25.58;3.40;;;5.40;99.90;;;;;;5039943;28;20037;-74
2023/03/04 06:11:52;;;;;;;15.00;2.47;;;5.30;99.90;;;;;;5042088;28;20037;-74
2023/03/04 06:14:18;;;;;;;19.08;2.92;;;5.40;99.90;;;;;;5043827;28;20052;-77
2023/03/04 06:16:43;;;;;;;17.92;3.05;;;5.40;99.90;;;;;;5045094;28;20029;-71
2023/03/04 06:19:09;;;;;;;16.73;2.88;;;5.50;99.90;;;;;;5045185;28;20052;-71
2023/03/04 06:21:34;;;;;;;19.30;2.90;;;5.40;99.90;;;;;;5045494;28;20088;-73
2023/03/04 06:24:00;;;;;;;24.17;3.30;;;5.40;99.90;;;;;;5043644;28;20024;-74
2023/03/04 06:26:25;;;;;;;22.73;2.83;;;5.30;99.90;;;;;;5044361;28;20050;-72
2023/03/04 06:28:55;;;;;;;21.55;3.60;;;5.30;99.90;;;;;;5043976;28;20024;-72
2023/03/04 06:31:21;;;;;;;28.00;3.78;;;5.30;99.90;;;;;;5041200;28;20052;-71
2023/03/04 06:33:47;;;;;;;22.73;3.30;;;5.30;99.90;;;;;;5044872;28;20498;-74
2023/03/04 06:36:12;;;;;;;29.27;4.07;;;5.30;99.90;;;;;;5042868;28;20021;-71
2023/03/04 06:38:38;;;;;;;33.55;4.20;;;5.30;99.90;;;;;;5043736;28;20033;-71
2023/03/04 06:41:09;;;;;;;37.13;4.35;;;5.30;99.90;;;;;;5044636;28;20029;-74
2023/03/04 06:43:35;;;;;;;19.75;3.05;;;5.30;99.90;;;;;;5044518;28;20044;-74
2023/03/04 06:46:00;;;;;;;31.25;3.22;;;5.30;99.90;;;;;;5040396;28;20052;-72
2023/03/04 06:48:27;;;;;;;31.45;3.83;;;5.30;99.90;;;;;;5041424;28;20021;-71
2023/03/04 06:50:52;;;;;;;27.80;3.97;;;5.30;99.90;;;;;;5043375;28;20049;-72
2023/03/04 06:53:18;;;;;;;34.17;4.47;;;5.30;99.90;;;;;;5042488;28;20037;-72
2023/03/04 06:55:43;;;;;;;32.58;4.07;;;5.30;99.90;;;;;;5042445;28;20029;-73
2023/03/04 06:58:09;;;;;;;31.85;3.88;;;5.30;99.90;;;;;;5044255;28;20503;-73
2023/03/04 07:00:35;;;;;;;29.20;3.92;;;5.30;99.90;;;;;;5044352;28;20049;-74
2023/03/04 07:03:00;;;;;;;36.22;4.30;;;5.40;99.90;;;;;;5042246;28;20040;-74
2023/03/04 07:05:26;;;;;;;27.77;3.50;;;5.40;99.90;;;;;;5041255;28;20017;-72
2023/03/04 07:07:52;;;;;;;31.67;3.83;;;5.40;99.90;;;;;;5043439;28;20037;-71
2023/03/04 07:10:18;;;;;;;27.85;3.83;;;5.50;99.90;;;;;;5041070;28;20029;-72
2023/03/04 07:12:44;;;;;;;30.05;3.75;;;5.40;99.90;;;;;;5042592;28;20029;-73
2023/03/04 07:15:10;;;;;;;28.77;3.90;;;5.40;99.90;;;;;;5043044;28;20089;-73
2023/03/04 07:17:36;;;;;;;34.22;3.20;;;5.50;99.90;;;;;;5041095;28;20093;-70
2023/03/04 07:20:01;;;;;;;33.83;3.88;;;5.60;99.90;;;;;;5040171;28;20048;-71
2023/03/04 07:22:27;;;;;;;27.02;4.18;;;5.40;99.90;;;;;;5043802;28;20022;-72
2023/03/04 07:24:52;;;;;;;26.52;3.83;;;5.50;99.90;;;;;;5042197;28;20085;-71
2023/03/04 07:27:18;;;;;;;31.05;3.95;;;5.50;99.90;;;;;;5043610;28;20041;-71
2023/03/04 07:29:43;;;;;;;35.03;4.35;;;5.60;99.90;;;;;;5043771;28;20035;-69
2023/03/04 07:32:09;;;;;;;38.72;4.78;;;5.60;99.90;;;;;;5042436;28;20021;-70
2023/03/04 07:34:35;;;;;;;36.72;4.72;;;5.50;99.90;;;;;;5042401;28;20025;-71
2023/03/04 07:37:01;;;;;;;38.90;4.07;;;5.70;99.90;;;;;;5040813;28;20125;-71
2023/03/04 07:39:26;;;;;;;38.28;4.72;;;5.60;99.90;;;;;;5038789;28;20546;-71
2023/03/04 07:41:52;;;;;;;37.75;4.57;;;5.60;99.90;;;;;;5039263;28;20044;-73
2023/03/04 07:44:17;;;;;;;26.73;3.70;;;5.60;99.90;;;;;;5042447;28;20424;-70
2023/03/04 07:46:43;;;;;;;27.77;3.42;;;5.70;99.90;;;;;;5043272;28;20554;-72
2023/03/04 07:49:11;;;;;;;29.27;4.32;;;5.70;99.90;;;;;;5043621;28;20032;-73
2023/03/04 07:51:37;;;;;;;38.67;4.50;;;5.70;99.90;;;;;;5041217;28;20025;-71
2023/03/04 07:54:02;;;;;;;32.42;4.07;;;5.70;99.90;;;;;;5043117;28;20029;-72
2023/03/04 07:56:31;;;;;;;22.50;4.20;;;5.80;99.90;;;;;;5042123;28;20093;-71
2023/03/04 07:58:57;;;;;;;23.17;3.60;;;5.80;99.90;;;;;;5042165;28;20033;-72
2023/03/04 08:01:26;;;;;;;34.10;3.92;;;5.80;99.90;;;;;;5042842;28;20022;-72
2023/03/04 08:03:52;;;;;;;30.77;3.75;;;5.80;99.90;;;;;;5042619;28;20017;-73
2023/03/04 08:06:19;;;;;;;26.85;4.57;;;5.80;99.90;;;;;;5040861;28;20538;-70
2023/03/04 08:08:46;;;;;;;37.00;4.80;;;5.80;99.90;;;;;;5041885;28;20028;-70
2023/03/04 08:11:14;;;;;;;44.40;4.32;;;5.80;99.90;;;;;;5041125;28;20021;-70
2023/03/04 08:13:40;;;;;;;31.25;4.28;;;5.70;99.90;;;;;;5042213;28;20046;-71
2023/03/04 08:16:06;;;;;;;42.63;4.53;;;5.70;99.90;;;;;;5043038;28;20021;-74
2023/03/04 08:18:32;;;;;;;31.77;4.30;;;5.70;99.90;;;;;;5042765;28;20040;-73
2023/03/04 08:20:58;;;;;;;36.58;4.43;;;5.60;99.90;;;;;;5041810;28;20560;-70
2023/03/04 08:23:24;;;;;;;35.08;3.95;;;5.60;99.90;;;;;;5041880;28;20018;-69
2023/03/04 08:25:50;;;;;;;33.05;4.78;;;5.60;99.90;;;;;;5041067;28;20057;-73
2023/03/04 08:28:16;;;;;;;27.25;4.20;;;5.60;99.90;;;;;;5042905;28;20041;-71
2023/03/04 08:30:42;;;;;;;30.45;5.28;;;5.80;99.90;;;;;;5042442;28;20080;-71
2023/03/04 08:33:08;;;;;;;35.08;3.88;;;5.70;99.90;;;;;;5041135;28;20359;-73
2023/03/04 08:35:38;;;;;;;29.83;4.22;;;5.70;99.90;;;;;;5042621;28;20021;-70
2023/03/04 08:38:04;;;;;;;33.20;4.07;;;5.90;99.90;;;;;;5039054;28;20029;-71
2023/03/04 08:40:30;;;;;;;21.02;2.92;;;5.80;99.90;;;;;;5040456;28;20080;-71
2023/03/04 08:42:56;;;;;;;19.83;2.85;;;5.80;99.90;;;;;;5039558;28;20021;-71
2023/03/04 08:45:21;;;;;;;20.58;2.92;;;5.90;99.90;;;;;;5042212;28;20022;-70
2023/03/04 08:47:47;;;;;;;16.83;2.92;;;5.80;99.90;;;;;;5042178;28;20036;-71
2023/03/04 08:50:13;;;;;;;25.90;3.53;;;5.80;99.90;;;;;;5042491;28;20088;-73
2023/03/04 08:52:38;;;;;;;23.35;3.97;;;5.80;99.90;;;;;;5041628;28;20049;-73
2023/03/04 08:55:04;;;;;;;25.08;3.63;;;5.70;99.90;;;;;;5039293;28;20025;-70
2023/03/04 08:57:30;;;;;;;17.27;2.97;;;5.60;99.90;;;;;;5040921;28;20855;-70
2023/03/04 08:59:55;;;;;;;33.58;5.88;;;5.60;99.90;;;;;;5040845;28;20048;-71
2023/03/04 09:02:21;;;;;;;21.98;3.25;;;5.60;99.90;;;;;;5036329;28;20036;-70
2023/03/04 09:04:46;;;;;;;28.30;3.78;;;5.60;99.90;;;;;;5039333;28;20033;-71
2023/03/04 09:07:13;;;;;;;21.95;3.10;;;5.70;99.90;;;;;;5041832;28;20025;-69
2023/03/04 09:09:39;;;;;;;27.10;3.45;;;5.80;99.90;;;;;;5041423;28;20026;-70
2023/03/04 09:12:05;;;;;;;43.38;4.38;;;5.80;99.90;;;;;;5039717;28;20045;-72
2023/03/04 09:14:32;;;;;;;38.90;4.20;;;5.90;99.90;;;;;;5041318;28;20044;-70
2023/03/04 09:16:57;;;;;;;39.85;4.45;;;5.90;99.90;;;;;;5040545;28;20049;-70
2023/03/04 09:19:23;;;;;;;23.55;3.97;;;5.90;99.90;;;;;;5041603;28;20052;-68
2023/03/04 09:21:48;;;;;;;31.85;3.90;;;5.90;99.90;;;;;;5041564;28;20033;-70
2023/03/04 09:24:14;;;;;;;26.10;4.22;;;5.80;99.90;;;;;;5041867;28;20029;-71
2023/03/04 09:26:40;;;;;;;39.97;5.18;;;5.90;99.90;;;;;;5040436;28;20053;-70
2023/03/04 09:29:05;;;;;;;36.33;5.13;;;5.90;99.90;;;;;;5039393;28;20030;-69
2023/03/04 09:31:31;;;;;;;32.95;4.47;;;6.00;99.90;;;;;;5040442;28;20085;-71
2023/03/04 09:33:58;;;;;;;33.80;4.30;;;5.90;99.90;;;;;;5039514;28;20405;-69
2023/03/04 09:36:23;;;;;;;31.02;4.18;;;5.80;99.90;;;;;;5039908;28;20615;-70
2023/03/04 09:38:50;;;;;;;26.30;4.45;;;5.90;99.90;;;;;;5039867;28;20063;-70
2023/03/04 09:41:19;;;;;;;38.50;4.47;;;5.90;99.90;;;;;;5040563;28;20037;-70
2023/03/04 09:43:46;;;;;;;27.77;4.18;;;6.00;99.90;;;;;;5041023;28;20021;-69
2023/03/04 09:46:15;;;;;;;28.00;3.85;;;6.20;99.90;;;;;;5040676;28;20060;-69
2023/03/04 09:48:50;;;;;;;27.85;3.45;;;6.40;99.90;;;;;;5046563;28;20021;-69
2023/03/04 09:51:22;;;;;;;26.20;3.55;;;6.60;99.90;;;;;;5043672;28;20041;-69
2023/03/04 09:54:02;;;;;;;22.85;3.55;;;6.80;99.90;;;;;;5046418;28;20039;-69
2023/03/04 09:56:36;;;;;;;25.45;4.20;;;7.00;99.90;;;;;;5046672;28;20120;-69
2023/03/04 09:59:18;;;;;;;29.38;4.25;;;7.20;99.90;;;;;;5046575;28;20052;-70
2023/03/04 10:01:54;;;;;;;27.55;4.43;;;7.30;99.90;;;;;;5046374;28;20041;-71
2023/03/04 10:04:46;;;;;;;24.92;3.70;;;7.30;99.90;;;;;;5046490;28;20107;-70
2023/03/04 10:07:22;;;;;;;30.13;4.03;;;7.30;99.90;;;;;;5047002;28;20038;-70
2023/03/04 10:10:12;;;;;;;21.70;3.60;;;7.60;99.90;;;;;;5044879;28;20040;-69
2023/03/04 10:12:41;;;;;;;22.30;4.13;;;7.60;99.90;;;;;;5045571;28;20030;-70
2023/03/04 10:15:22;;;;;;;23.67;4.05;;;7.40;99.90;;;;;;5043472;28;20061;-70
2023/03/04 10:17:53;;;;;;;33.65;3.97;;;7.10;99.90;;;;;;5046268;28;20112;-70
2023/03/04 10:20:25;;;;;;;28.50;4.53;;;6.80;99.90;;;;;;5045090;28;20100;-70
2023/03/04 10:22:58;;;;;;;40.65;5.00;;;6.60;99.90;;;;;;5046926;28;20049;-71
2023/03/04 10:25:30;;;;;;;29.77;4.25;;;6.40;99.90;;;;;;5047576;28;20040;-71
2023/03/04 10:28:05;;;;;;;32.67;4.03;;;6.40;99.90;;;;;;5045551;28;20033;-71
2023/03/04 10:30:56;;;;;;;36.38;3.92;;;6.60;99.90;;;;;;5047299;28;20072;-71
2023/03/04 10:33:29;;;;;;;30.60;3.92;;;6.90;99.90;;;;;;5046067;28;20029;-73
2023/03/04 10:36:05;;;;;;;25.45;4.65;;;7.20;99.90;;;;;;5047868;28;20025;-71
2023/03/04 10:38:38;;;;;;;30.50;4.40;;;7.70;99.90;;;;;;5047024;28;20038;-70
2023/03/04 10:41:13;;;;;;;34.80;4.60;;;7.90;99.90;;;;;;5047564;28;20172;-71
2023/03/04 10:43:39;;;;;;;29.58;3.63;;;7.70;99.90;;;;;;5047450;28;20037;-72
2023/03/04 10:46:05;;;;;;;32.85;4.38;;;7.40;99.90;;;;;;5045153;28;20026;-71
2023/03/04 10:48:31;;;;;;;30.10;4.35;;;7.20;99.90;;;;;;5045286;28;20148;-71
2023/03/04 10:51:10;;;;;;;36.80;4.13;;;7.10;99.90;;;;;;5047478;28;20026;-71
2023/03/04 10:53:40;;;;;;;27.27;3.95;;;7.20;99.90;;;;;;5046856;28;20017;-74
2023/03/04 10:56:34;;;;;;;30.52;3.80;;;7.20;99.90;;;;;;5045285;28;20113;-72
2023/03/04 10:59:37;;;;;;;30.38;4.05;;;7.20;99.90;;;;;;5041582;28;20585;-72
2023/03/04 11:02:29;;;;;;;29.73;3.60;;;7.20;99.90;;;;;;5043293;28;20026;-71
2023/03/04 11:05:08;;;;;;;24.42;3.78;;;7.30;99.90;;;;;;5043053;28;20044;-72
2023/03/04 11:07:39;;;;;;;28.45;4.10;;;7.50;99.90;;;;;;5042349;28;20109;-71
2023/03/04 11:10:46;;;;;;;30.23;3.80;;;7.90;99.90;;;;;;5043778;28;20025;-70
2023/03/04 11:13:21;;;;;;;22.42;3.60;;;8.30;99.90;;;;;;5043173;28;20045;-69
2023/03/04 11:15:55;;;;;;;28.75;3.80;;;8.80;99.90;;;;;;5041880;28;20037;-70
2023/03/04 11:18:42;;;;;;;27.40;4.00;;;8.90;99.90;;;;;;5042498;28;20035;-69
2023/03/04 11:21:15;;;;;;;26.85;3.83;;;8.90;99.90;;;;;;5041758;28;20041;-70
2023/03/04 11:23:56;;;;;;;22.77;3.90;;;8.60;99.90;;;;;;5042354;28;20022;-71
2023/03/04 11:26:35;;;;;;;34.05;4.07;;;8.20;99.90;;;;;;5040381;28;20057;-71
2023/03/04 11:29:21;;;;;;;22.80;3.58;;;7.90;99.90;;;;;;5042146;28;20550;-69
2023/03/04 11:31:50;;;;;;;28.42;3.38;;;7.80;99.90;;;;;;5043243;28;20029;-70
2023/03/04 11:34:53;;;;;;;27.50;4.55;;;7.70;99.90;;;;;;5043179;28;20029;-70
2023/03/04 11:37:29;;;;;;;20.95;3.15;;;7.70;99.90;;;;;;5042162;28;20025;-70
2023/03/04 11:40:12;;;;;;;24.58;3.85;;;8.00;99.90;;;;;;5041070;28;20079;-70
2023/03/04 11:42:43;;;;;;;18.02;3.38;;;8.50;99.90;;;;;;5041229;28;20064;-72
2023/03/04 11:45:26;;;;;;;28.80;4.07;;;8.60;99.90;;;;;;5041305;28;20021;-69
2023/03/04 11:48:03;;;;;;;25.13;3.78;;;8.60;99.90;;;;;;5042387;28;20075;-71
2023/03/04 11:50:34;;;;;;;24.40;4.22;;;8.40;99.90;;;;;;5040816;28;20033;-74
2023/03/04 11:53:26;;;;;;;26.90;4.47;;;8.10;99.90;;;;;;5041218;28;20022;-71
2023/03/04 11:56:30;;;;;;;26.45;4.30;;;7.80;99.90;;;;;;5040971;28;20045;-72
2023/03/04 11:59:09;;;;;;;30.00;4.40;;;7.50;99.90;;;;;;5041864;28;20067;-71
2023/03/04 12:01:57;;;;;;;25.25;3.90;;;7.10;99.90;;;;;;5042717;28;20125;-71
2023/03/04 12:04:29;;;;;;;27.90;4.03;;;6.80;99.90;;;;;;5041756;28;20489;-73
2023/03/04 12:07:08;;;;;;;31.95;5.03;;;6.80;99.90;;;;;;5039535;28;20033;-70
2023/03/04 12:09:55;;;;;;;29.65;4.55;;;7.00;99.90;;;;;;5039793;28;20029;-70
2023/03/04 12:12:58;;;;;;;36.60;5.55;;;7.30;99.90;;;;;;5039164;28;20068;-69
2023/03/04 12:15:46;;;;;;;34.55;6.85;;;7.60;99.90;;;;;;5040436;28;20037;-70
2023/03/04 12:18:12;;;;;;;37.35;7.28;;;7.50;99.90;;;;;;5042037;28;20040;-71
2023/03/04 12:20:43;;;;;;;29.02;7.63;;;7.50;99.90;;;;;;5041437;28;20073;-71
2023/03/04 12:23:19;;;;;;;33.03;4.90;;;7.50;99.90;;;;;;5041973;28;20029;-72
2023/03/04 12:25:51;;;;;;;26.83;6.38;;;7.60;99.90;;;;;;5042008;28;20030;-71
2023/03/04 12:28:34;;;;;;;40.17;6.78;;;7.70;99.90;;;;;;5041653;28;20033;-72
2023/03/04 12:31:23;;;;;;;26.52;3.80;;;7.90;99.90;;;;;;5040400;28;20033;-73
2023/03/04 12:34:12;;;;;;;24.88;4.97;;;8.00;99.90;;;;;;5040415;28;20037;-70
2023/03/04 12:37:04;;;;;;;34.42;5.63;;;7.90;99.90;;;;;;5040664;28;20053;-72
2023/03/04 12:39:36;;;;;;;35.33;5.30;;;7.60;99.90;;;;;;5039184;28;20038;-71
2023/03/04 12:42:31;;;;;;;28.70;4.50;;;7.30;99.90;;;;;;5038593;28;20021;-70
2023/03/04 12:45:21;;;;;;;27.25;3.97;;;7.10;99.90;;;;;;5037014;28;20061;-70
2023/03/04 12:48:11;;;;;;;29.63;3.83;;;6.90;99.90;;;;;;5040810;28;20124;-72
2023/03/04 12:50:55;;;;;;;27.08;4.32;;;6.80;99.90;;;;;;5039260;28;20409;-73
2023/03/04 12:53:34;;;;;;;28.52;4.07;;;6.70;99.90;;;;;;5040740;28;20045;-73
2023/03/04 12:56:03;;;;;;;24.90;3.50;;;6.50;99.90;;;;;;5041317;28;20029;-72
2023/03/04 12:58:31;;;;;;;26.50;3.38;;;6.50;99.90;;;;;;5039101;28;20025;-72